Time,TemperatureF,DewpointF,PressureIn,WindDirection,WindDirectionDegrees,WindSpeedMPH,WindSpeedGustMPH,Humidity,HourlyPrecipIn,Conditions,Clouds,dailyrainin,SoftwareType,DateUTC
2013-01-04 00:10:00,6.2,-8.5,30.58,West,275,0.0,0.0,50,0.00,,,0.00,Wunderground v.1.15,2013-01-04 07:10:00,
2013-01-04 00:20:00,6.1,-8.2,30.57,West,275,0.0,0.0,51,0.00,,,0.00,Wunderground v.1.15,2013-01-04 07:20:00,
2013-01-04 00:30:00,6.1,-8.2,30.57,West,275,0.0,0.0,51,0.00,,,0.00,Wunderground v.1.15,2013-01-04 07:30:00,
2013-01-04 00:40:00,6.0,-8.3,30.56,West,275,0.0,0.0,51,0.00,,,0.00,Wunderground v.1.15,2013-01-04 07:40:00,
2013-01-04 00:50:00,5.9,-8.4,30.56,West,275,0.0,0.0,51,0.00,,,0.00,Wunderground v.1.15,2013-01-04 07:50:00,
2013-01-04 00:59:00,5.9,-8.4,30.56,West,275,0.0,0.0,51,0.00,,,0.00,Wunderground v.1.15,2013-01-04 07:59:00,
2013-01-04 01:10:00,6.2,-8.5,30.56,West,275,0.0,0.0,50,0.00,,,0.00,Wunderground v.1.15,2013-01-04 08:10:00,
2013-01-04 01:20:00,6.6,-8.1,30.56,West,275,0.0,0.0,50,0.00,,,0.00,Wunderground v.1.15,2013-01-04 08:20:00,
2013-01-04 01:30:00,7.1,-7.7,30.56,West,275,0.0,0.0,50,0.00,,,0.00,Wunderground v.1.15,2013-01-04 08:30:00,
2013-01-04 01:39:00,7.3,-7.9,30.56,West,275,0.0,0.0,49,0.00,,,0.00,Wunderground v.1.15,2013-01-04 08:39:00,
2013-01-04 01:49:00,7.4,-7.4,30.56,South,174,0.0,0.0,50,0.00,,,0.00,Wunderground v.1.15,2013-01-04 08:49:00,
2013-01-04 01:59:00,7.5,-7.7,30.56,South,172,0.0,0.0,49,0.00,,,0.00,Wunderground v.1.15,2013-01-04 08:59:00,
2013-01-04 02:09:00,7.1,-7.7,30.56,South,173,0.0,0.0,50,0.00,,,0.00,Wunderground v.1.15,2013-01-04 09:09:00,
2013-01-04 02:19:00,7.3,-7.5,30.55,South,173,0.0,0.0,50,0.00,,,0.00,Wunderground v.1.15,2013-01-04 09:19:00,
2013-01-04 02:29:00,7.7,-7.5,30.56,South,172,0.0,0.0,49,0.00,,,0.00,Wunderground v.1.15,2013-01-04 09:29:00,
2013-01-04 02:39:00,8.4,-7.3,30.55,South,173,0.0,0.0,48,0.00,,,0.00,Wunderground v.1.15,2013-01-04 09:39:00,
2013-01-04 02:50:00,9.0,-7.2,30.55,South,173,0.0,0.0,47,0.00,,,0.00,Wunderground v.1.15,2013-01-04 09:50:00,
2013-01-04 03:10:00,9.3,-6.9,30.55,South,173,0.0,0.0,47,0.00,,,0.00,Wunderground v.1.15,2013-01-04 10:10:00,
2013-01-04 03:20:00,9.5,-7.2,30.55,South,172,0.0,0.0,46,0.00,,,0.00,Wunderground v.1.15,2013-01-04 10:20:00,
2013-01-04 03:30:00,9.4,-7.2,30.54,South,173,0.0,0.0,46,0.00,,,0.00,Wunderground v.1.15,2013-01-04 10:30:00,
2013-01-04 03:40:00,9.1,-6.6,30.54,South,173,0.0,0.0,48,0.00,,,0.00,Wunderground v.1.15,2013-01-04 10:40:00,
2013-01-04 03:50:00,8.9,-7.7,30.53,South,172,0.0,0.0,46,0.00,,,0.00,Wunderground v.1.15,2013-01-04 10:50:00,
2013-01-04 04:00:00,8.9,-7.7,30.53,South,173,0.0,0.0,46,0.00,,,0.00,Wunderground v.1.15,2013-01-04 11:00:00,
2013-01-04 04:10:00,8.8,-7.8,30.53,South,173,0.0,0.0,46,0.00,,,0.00,Wunderground v.1.15,2013-01-04 11:10:00,
2013-01-04 04:19:00,8.7,-7.9,30.53,South,172,0.0,0.0,46,0.00,,,0.00,Wunderground v.1.15,2013-01-04 11:19:00,
2013-01-04 04:30:00,8.3,-7.8,30.53,South,173,0.0,0.0,47,0.00,,,0.00,Wunderground v.1.15,2013-01-04 11:30:00,
2013-01-04 04:40:00,7.7,-7.9,30.53,South,173,0.0,0.0,48,0.00,,,0.00,Wunderground v.1.15,2013-01-04 11:40:00,
2013-01-04 04:50:00,6.9,-8.7,30.53,South,172,0.0,0.0,48,0.00,,,0.00,Wunderground v.1.15,2013-01-04 11:50:00,
2013-01-04 05:00:00,6.5,-8.2,30.53,South,173,0.0,0.0,50,0.00,,,0.00,Wunderground v.1.15,2013-01-04 12:00:00,
2013-01-04 05:10:00,7.1,-7.3,30.53,South,173,0.0,0.0,51,0.00,,,0.00,Wunderground v.1.15,2013-01-04 12:10:00,
2013-01-04 05:20:00,7.5,-7.3,30.53,South,173,0.0,0.0,50,0.00,,,0.00,Wunderground v.1.15,2013-01-04 12:20:00,
2013-01-04 05:30:00,7.8,-7.0,30.53,South,172,0.0,0.0,50,0.00,,,0.00,Wunderground v.1.15,2013-01-04 12:30:00,
2013-01-04 05:40:00,8.0,-7.2,30.52,South,173,0.0,0.0,49,0.00,,,0.00,Wunderground v.1.15,2013-01-04 12:40:00,
2013-01-04 05:50:00,7.5,-7.7,30.52,South,173,0.0,0.0,49,0.00,,,0.00,Wunderground v.1.15,2013-01-04 12:50:00,
2013-01-04 06:00:00,6.7,-7.2,30.52,South,172,0.0,0.0,52,0.00,,,0.00,Wunderground v.1.15,2013-01-04 13:00:00,
2013-01-04 06:10:00,6.5,-6.3,30.52,South,173,0.0,0.0,55,0.00,,,0.00,Wunderground v.1.15,2013-01-04 13:10:00,
2013-01-04 06:20:00,7.3,-5.1,30.51,South,173,0.0,0.0,56,0.00,,,0.00,Wunderground v.1.15,2013-01-04 13:20:00,
2013-01-04 06:30:00,7.9,-5.3,30.51,South,173,0.0,0.0,54,0.00,,,0.00,Wunderground v.1.15,2013-01-04 13:30:00,
2013-01-04 06:40:00,7.7,-6.3,30.51,South,173,0.0,0.0,52,0.00,,,0.00,Wunderground v.1.15,2013-01-04 13:40:00,
2013-01-04 06:50:00,7.4,-5.4,30.51,South,173,0.0,0.0,55,0.00,,,0.00,Wunderground v.1.15,2013-01-04 13:50:00,
2013-01-04 07:00:00,7.4,-5.4,30.51,South,173,0.0,0.0,55,0.00,,,0.00,Wunderground v.1.15,2013-01-04 14:00:00,
2013-01-04 07:10:00,6.9,-5.5,30.50,South,173,0.0,0.0,56,0.00,,,0.00,Wunderground v.1.15,2013-01-04 14:10:00,
2013-01-04 07:20:00,6.7,-5.7,30.51,South,173,0.0,0.0,56,0.00,,,0.00,Wunderground v.1.15,2013-01-04 14:20:00,
2013-01-04 07:30:00,6.5,-5.9,30.51,South,173,0.0,0.0,56,0.00,,,0.00,Wunderground v.1.15,2013-01-04 14:30:00,
2013-01-04 07:40:00,6.3,-5.3,30.51,South,172,0.0,0.0,58,0.00,,,0.00,Wunderground v.1.15,2013-01-04 14:40:00,
2013-01-04 07:50:00,7.1,-4.6,30.51,South,173,0.0,0.0,58,0.00,,,0.00,Wunderground v.1.15,2013-01-04 14:50:00,
2013-01-04 08:00:00,8.3,-4.2,30.51,South,173,0.0,0.0,56,0.00,,,0.00,Wunderground v.1.15,2013-01-04 15:00:00,
2013-01-04 08:09:00,8.7,-5.0,30.52,South,173,0.0,0.0,53,0.00,,,0.00,Wunderground v.1.15,2013-01-04 15:09:00,
2013-01-04 08:20:00,9.4,-4.7,30.52,South,172,0.0,0.0,52,0.00,,,0.00,Wunderground v.1.15,2013-01-04 15:20:00,
2013-01-04 08:30:00,10.3,-4.7,30.52,South,173,0.0,0.0,50,0.00,,,0.00,Wunderground v.1.15,2013-01-04 15:30:00,
2013-01-04 08:40:00,12.1,-4.3,30.52,South,172,0.0,0.0,47,0.00,,,0.00,Wunderground v.1.15,2013-01-04 15:40:00,
2013-01-04 08:50:00,15.4,-2.7,30.52,South,173,0.0,0.0,44,0.00,,,0.00,Wunderground v.1.15,2013-01-04 15:50:00,
2013-01-04 09:00:00,16.6,-2.5,30.52,South,172,0.0,0.0,42,0.00,,,0.00,Wunderground v.1.15,2013-01-04 16:00:00,
2013-01-04 09:10:00,17.7,-3.1,30.52,South,173,0.0,0.0,39,0.00,,,0.00,Wunderground v.1.15,2013-01-04 16:10:00,
2013-01-04 09:20:00,18.6,-1.8,30.52,South,173,0.0,0.0,40,0.00,,,0.00,Wunderground v.1.15,2013-01-04 16:20:00,
2013-01-04 09:30:00,21.6,-0.7,30.52,South,173,0.0,0.0,37,0.00,,,0.00,Wunderground v.1.15,2013-01-04 16:30:00,
2013-01-04 09:40:00,21.7,-1.8,30.52,South,172,0.0,0.0,35,0.00,,,0.00,Wunderground v.1.15,2013-01-04 16:40:00,
2013-01-04 09:50:00,23.4,-0.3,30.51,South,173,0.0,0.0,35,0.00,,,0.00,Wunderground v.1.15,2013-01-04 16:50:00,
2013-01-04 10:00:00,23.3,-1.0,30.51,South,173,0.0,0.0,34,0.00,,,0.00,Wunderground v.1.15,2013-01-04 17:00:00,
2013-01-04 10:10:00,23.3,-1.0,30.51,South,173,0.0,0.0,34,0.00,,,0.00,Wunderground v.1.15,2013-01-04 17:10:00,
2013-01-04 10:19:00,21.3,-2.2,30.50,South,174,0.0,0.0,35,0.00,,,0.00,Wunderground v.1.15,2013-01-04 17:19:00,
2013-01-04 10:30:00,21.6,-1.3,30.50,South,173,0.0,0.0,36,0.00,,,0.00,Wunderground v.1.15,2013-01-04 17:30:00,
2013-01-04 10:40:00,21.8,-3.6,30.49,WSW,250,0.0,0.0,32,0.00,,,0.00,Wunderground v.1.15,2013-01-04 17:40:00,
2013-01-04 10:50:00,19.4,-3.3,30.49,WSW,250,0.0,0.0,36,0.00,,,0.00,Wunderground v.1.15,2013-01-04 17:50:00,
2013-01-04 11:00:00,18.8,-3.8,30.49,NE,51,0.0,0.0,36,0.00,,,0.00,Wunderground v.1.15,2013-01-04 18:00:00,
2013-01-04 11:09:00,20.2,-0.8,30.48,NE,56,0.0,0.0,39,0.00,,,0.00,Wunderground v.1.15,2013-01-04 18:09:00,
2013-01-04 11:20:00,22.0,-1.5,30.47,ENE,57,0.0,0.0,35,0.00,,,0.00,Wunderground v.1.15,2013-01-04 18:20:00,
2013-01-04 11:29:00,22.5,-0.5,30.46,ENE,57,0.0,0.0,36,0.00,,,0.01,Wunderground v.1.15,2013-01-04 18:29:00,
2013-01-04 11:40:00,22.7,-0.9,30.45,NE,56,0.0,0.0,35,0.00,,,0.01,Wunderground v.1.15,2013-01-04 18:40:00,
2013-01-04 11:50:00,22.0,-0.9,30.44,ENE,57,0.0,0.0,36,0.00,,,0.01,Wunderground v.1.15,2013-01-04 18:50:00,
2013-01-04 12:00:00,22.0,-0.9,30.43,NE,56,0.0,0.0,36,0.00,,,0.01,Wunderground v.1.15,2013-01-04 19:00:00,
2013-01-04 12:10:00,23.4,0.3,30.42,ENE,57,0.0,0.0,36,0.00,,,0.01,Wunderground v.1.15,2013-01-04 19:10:00,
2013-01-04 12:20:00,23.4,2.0,30.41,NE,56,0.0,0.0,39,0.00,,,0.01,Wunderground v.1.15,2013-01-04 19:20:00,
2013-01-04 12:30:00,23.4,0.9,30.40,NE,56,0.0,0.0,37,0.00,,,0.01,Wunderground v.1.15,2013-01-04 19:30:00,
2013-01-04 12:40:00,23.1,0.1,30.39,ENE,57,0.0,0.0,36,0.00,,,0.01,Wunderground v.1.15,2013-01-04 19:40:00,
2013-01-04 12:50:00,23.5,1.6,30.39,NE,56,0.0,0.0,38,0.00,,,0.01,Wunderground v.1.15,2013-01-04 19:50:00,
2013-01-04 13:00:00,24.7,2.1,30.38,NE,56,0.0,0.0,37,0.00,,,0.01,Wunderground v.1.15,2013-01-04 20:00:00,
2013-01-04 13:09:00,24.1,2.7,30.37,ENE,57,0.0,0.0,39,0.00,,,0.01,Wunderground v.1.15,2013-01-04 20:09:00,
2013-01-04 13:20:00,24.4,1.8,30.37,NE,56,0.0,0.0,37,0.00,,,0.01,Wunderground v.1.15,2013-01-04 20:20:00,
2013-01-04 13:30:00,24.6,1.4,30.36,NE,56,0.0,0.0,36,0.00,,,0.01,Wunderground v.1.15,2013-01-04 20:30:00,
2013-01-04 13:40:00,24.9,1.7,30.36,ENE,57,0.0,0.0,36,0.00,,,0.01,Wunderground v.1.15,2013-01-04 20:40:00,
2013-01-04 13:50:00,23.9,1.9,30.35,NE,56,0.0,0.0,38,0.00,,,0.01,Wunderground v.1.15,2013-01-04 20:50:00,
2013-01-04 14:00:00,25.4,3.3,30.34,NE,56,0.0,0.0,38,0.00,,,0.01,Wunderground v.1.15,2013-01-04 21:00:00,
2013-01-04 14:10:00,26.2,3.4,30.34,ENE,57,0.0,0.0,37,0.00,,,0.01,Wunderground v.1.15,2013-01-04 21:10:00,
2013-01-04 14:20:00,27.0,4.7,30.34,ENE,57,0.0,0.0,38,0.00,,,0.01,Wunderground v.1.15,2013-01-04 21:20:00,
2013-01-04 14:40:00,25.8,4.8,30.33,ENE,57,0.0,0.0,40,0.00,,,0.01,Wunderground v.1.15,2013-01-04 21:40:00,
2013-01-04 14:50:00,25.0,4.6,30.33,East,87,0.0,2.0,41,0.00,,,0.01,Wunderground v.1.15,2013-01-04 21:50:00,
2013-01-04 15:00:00,24.3,3.4,30.33,SSE,153,1.0,1.0,40,0.00,,,0.01,Wunderground v.1.15,2013-01-04 22:00:00,
2013-01-04 15:10:00,23.7,3.4,30.33,SSE,159,0.0,0.0,41,0.00,,,0.01,Wunderground v.1.15,2013-01-04 22:10:00,
2013-01-04 15:20:00,23.5,3.2,30.32,SSE,159,0.0,0.0,41,0.00,,,0.01,Wunderground v.1.15,2013-01-04 22:20:00,
2013-01-04 15:30:00,23.6,3.3,30.32,SSE,159,0.0,0.0,41,0.00,,,0.01,Wunderground v.1.15,2013-01-04 22:30:00,
2013-01-04 15:40:00,23.9,3.0,30.32,SSE,159,0.0,0.0,40,0.00,,,0.01,Wunderground v.1.15,2013-01-04 22:40:00,
2013-01-04 15:50:00,24.0,3.7,30.31,SSE,159,0.0,0.0,41,0.00,,,0.01,Wunderground v.1.15,2013-01-04 22:50:00,
2013-01-04 16:00:00,24.0,4.2,30.31,SSE,159,0.0,0.0,42,0.00,,,0.01,Wunderground v.1.15,2013-01-04 23:00:00,
2013-01-04 16:10:00,23.6,3.8,30.30,SSE,159,0.0,0.0,42,0.00,,,0.01,Wunderground v.1.15,2013-01-04 23:10:00,
2013-01-04 16:20:00,23.1,3.4,30.31,SSE,159,0.0,0.0,42,0.00,,,0.01,Wunderground v.1.15,2013-01-04 23:20:00,
2013-01-04 16:29:00,22.6,2.9,30.30,SSE,159,0.0,0.0,42,0.00,,,0.01,Wunderground v.1.15,2013-01-04 23:29:00,
2013-01-04 16:39:00,22.0,2.4,30.30,SSE,159,0.0,0.0,42,0.00,,,0.01,Wunderground v.1.15,2013-01-04 23:39:00,
2013-01-04 16:49:00,21.5,2.4,30.30,SSE,159,0.0,0.0,43,0.00,,,0.01,Wunderground v.1.15,2013-01-04 23:49:00,
2013-01-04 16:59:00,21.0,2.0,30.30,SSE,159,0.0,0.0,43,0.00,,,0.01,Wunderground v.1.15,2013-01-04 23:59:00,
2013-01-04 17:10:00,20.7,2.2,30.29,SSE,159,0.0,0.0,44,0.00,,,0.01,Wunderground v.1.15,2013-01-05 00:10:00,
2013-01-04 17:20:00,20.3,2.3,30.29,SSE,159,0.0,0.0,45,0.00,,,0.01,Wunderground v.1.15,2013-01-05 00:20:00,
2013-01-04 17:30:00,20.0,3.0,30.29,SSE,159,0.0,0.0,47,0.00,,,0.01,Wunderground v.1.15,2013-01-05 00:30:00,
2013-01-04 17:39:00,19.9,3.8,30.29,SSE,159,0.0,0.0,49,0.00,,,0.01,Wunderground v.1.15,2013-01-05 00:39:00,
2013-01-04 17:49:00,18.9,1.5,30.30,SSE,159,0.0,0.0,46,0.00,,,0.01,Wunderground v.1.15,2013-01-05 00:49:00,
2013-01-04 17:59:00,17.3,0.5,30.29,SSE,159,0.0,0.0,47,0.00,,,0.01,Wunderground v.1.15,2013-01-05 00:59:00,
2013-01-04 18:09:00,17.3,3.1,30.30,SSE,159,0.0,0.0,53,0.00,,,0.01,Wunderground v.1.15,2013-01-05 01:09:00,
2013-01-04 18:19:00,18.6,3.4,30.29,SSE,159,0.0,0.0,51,0.00,,,0.01,Wunderground v.1.15,2013-01-05 01:19:00,
2013-01-04 18:29:00,19.7,3.2,30.30,SSE,159,0.0,0.0,48,0.00,,,0.01,Wunderground v.1.15,2013-01-05 01:29:00,
2013-01-04 18:39:00,19.7,3.2,30.30,SSE,159,0.0,0.0,48,0.00,,,0.01,Wunderground v.1.15,2013-01-05 01:39:00,
2013-01-04 18:50:00,19.2,3.6,30.30,SSE,159,0.0,0.0,50,0.00,,,0.01,Wunderground v.1.15,2013-01-05 01:50:00,
2013-01-04 19:00:00,19.9,4.2,30.30,SSE,159,0.0,0.0,50,0.00,,,0.01,Wunderground v.1.15,2013-01-05 02:00:00,
2013-01-04 19:10:00,20.8,5.1,30.29,SSE,159,0.0,0.0,50,0.00,,,0.01,Wunderground v.1.15,2013-01-05 02:10:00,
2013-01-04 19:19:00,19.7,3.6,30.29,SSE,159,0.0,0.0,49,0.00,,,0.01,Wunderground v.1.15,2013-01-05 02:19:00,
2013-01-04 19:29:00,19.4,4.6,30.29,SSE,159,0.0,0.0,52,0.00,,,0.01,Wunderground v.1.15,2013-01-05 02:29:00,
2013-01-04 19:39:00,19.6,5.2,30.28,SSE,163,0.0,0.0,53,0.00,,,0.01,Wunderground v.1.15,2013-01-05 02:39:00,
2013-01-04 19:49:00,20.4,5.5,30.28,WSW,240,0.0,0.0,52,0.00,,,0.01,Wunderground v.1.15,2013-01-05 02:49:00,
2013-01-04 20:00:00,21.2,5.4,30.27,WSW,240,0.0,0.0,50,0.00,,,0.01,Wunderground v.1.15,2013-01-05 03:00:00,
2013-01-04 20:09:00,21.2,5.0,30.27,WSW,240,0.0,0.0,49,0.00,,,0.01,Wunderground v.1.15,2013-01-05 03:09:00,
2013-01-04 20:19:00,21.3,5.1,30.27,WSW,240,0.0,0.0,49,0.00,,,0.01,Wunderground v.1.15,2013-01-05 03:19:00,
2013-01-04 20:29:00,21.3,4.6,30.27,WSW,240,0.0,0.0,48,0.00,,,0.01,Wunderground v.1.15,2013-01-05 03:29:00,
2013-01-04 20:49:00,20.9,4.3,30.27,WSW,240,0.0,0.0,48,0.00,,,0.01,Wunderground v.1.15,2013-01-05 03:49:00,
2013-01-04 21:00:00,20.9,3.8,30.27,WSW,240,0.0,0.0,47,0.00,,,0.01,Wunderground v.1.15,2013-01-05 04:00:00,
2013-01-04 21:09:00,20.7,3.6,30.26,WSW,240,0.0,0.0,47,0.00,,,0.01,Wunderground v.1.15,2013-01-05 04:09:00,
2013-01-04 21:20:00,20.4,3.3,30.26,WSW,240,0.0,0.0,47,0.00,,,0.01,Wunderground v.1.15,2013-01-05 04:20:00,
2013-01-04 21:29:00,20.7,3.2,30.26,WSW,240,0.0,0.0,46,0.00,,,0.01,Wunderground v.1.15,2013-01-05 04:29:00,
2013-01-04 21:40:00,20.6,2.1,30.26,WSW,244,0.0,0.0,44,0.00,,,0.01,Wunderground v.1.15,2013-01-05 04:40:00,
2013-01-04 21:50:00,20.7,1.2,30.26,WSW,248,1.0,1.0,42,0.00,,,0.01,Wunderground v.1.15,2013-01-05 04:50:00,
2013-01-04 22:19:00,20.2,-0.8,30.26,West,261,0.0,0.0,39,0.00,,,0.01,Wunderground v.1.15,2013-01-05 05:19:00,
2013-01-04 22:30:00,20.4,-1.2,30.26,West,261,0.0,0.0,38,0.00,,,0.01,Wunderground v.1.15,2013-01-05 05:30:00,
2013-01-04 22:39:00,20.2,-1.4,30.26,West,261,0.0,0.0,38,0.00,,,0.01,Wunderground v.1.15,2013-01-05 05:39:00,
2013-01-04 22:50:00,19.7,-1.3,30.26,West,261,0.0,0.0,39,0.00,,,0.01,Wunderground v.1.15,2013-01-05 05:50:00,
2013-01-04 23:00:00,19.3,-1.7,30.26,West,261,0.0,0.0,39,0.00,,,0.01,Wunderground v.1.15,2013-01-05 06:00:00,
2013-01-04 23:10:00,19.0,-2.5,30.26,West,261,0.0,0.0,38,0.00,,,0.01,Wunderground v.1.15,2013-01-05 06:10:00,
2013-01-04 23:19:00,18.7,-2.8,30.26,West,261,0.0,0.0,38,0.00,,,0.01,Wunderground v.1.15,2013-01-05 06:19:00,
2013-01-04 23:29:00,18.8,-2.7,30.26,West,261,0.0,0.0,38,0.00,,,0.01,Wunderground v.1.15,2013-01-05 06:29:00,
2013-01-04 23:40:00,18.6,-3.4,30.26,West,261,0.0,0.0,37,0.00,,,0.01,Wunderground v.1.15,2013-01-05 06:40:00,
2013-01-04 23:50:00,18.5,-3.5,30.25,West,261,0.0,0.0,37,0.00,,,0.01,Wunderground v.1.15,2013-01-05 06:50:00,